My Meet Scores
Anaise Serice, Legacy Elite Gymnastics LLC - MyMeetScores.com
Top100 | Top Teams | Upcoming Meets | Completed Meets | Latest | Add Scores | Help| Support | Bookmark and Share

Anaise Serice, Legacy Elite Gymnastics LLC
Personal Bests
LevelVault BarsBeamFloorAA
48.2758.350 8.6507.10031.375
XG9.3509.550 8.9759.15036.175
XP9.2258.950 9.0509.17535.400
XS9.1509.550 9.2009.15037.025
Meet Scores
Date Meet Team Session Level Division Vault Bars Beam Floor AA
2022-03-10 Lucky Invite Legacy Elite Gymnastics LLC B04 XP Older 9.125 10 8.200 13T 9.000 8T 8.750 17 35.075 13T
2022-02-26 Yurchenko Invitational Legacy Elite Gymnastics LLC 4 XP Junior B 9.225 3 8.800 3 8.200 5 9.175 2T 35.400 3
2022-02-11 Legacy Elite Classic Legacy Elite Gymnastics LLC 3 XP Sr 8.700 5 8.950 3 8.225 4 8.400 4 34.275 4
2021-12-10 St. Nick Invite 2021 Legacy Elite Gymnastics LLC 7B XP SrA 8.600 10T 8.550 7 9.050 5T 8.400 14 34.600 9
2021-05-12 Region 5 Xcel Gold, Platinum & Diamond Champi Elite Sports Complex Inc. 12A XG Sr B2 8.300 33 9.125 27T 8.225 27 8.500 32 34.150 33
2021-03-18 Level 5 & Xcel Gold State Elite Sports Complex Inc. 9 XG Sr C 9.350 10 8.900 14 8.975 17 8.950 18 36.175 13
2020-02-21 Kinetic Classic Elite Sports Complex Inc. 10 XG Older 9.250 33T 9.550 30T 8.050 65 9.150 47T 36.000 48T
2020-01-31 Big Chill Elite Sports Complex Inc. 5 XG 13+ 8.500 11 9.200 8 8.350 16T 9.025 17 35.075 15
2020-01-24 King Arthur Invitational Elite Sports Complex Inc. 11 XG SR A 8.450 10T 9.525 1 8.175 8 8.825 9 34.975 9
2020-01-10 Leenda's Island Adventure Elite Sports Complex Inc. GG8 XG 12 Year Ol 8.200 18 9.300 10T 8.300 12 8.800 11 34.600 12
2019-04-13 2019 Illinois XB, XS State Championships Oak Lawn Pirouette's Gymnastics 1 XS Sr C 9.150 15T 9.550 14T 9.175 25 9.150 18 37.025 18
2019-02-01 The Big Chill Oak Lawn Pirouette's Gymnastics 3 XS 12 & 13 yr 9.050 3 8.850 5 9.200 2 8.750 5 35.850 5
2019-01-25 UGA Invitational Oak Lawn Pirouette's Gymnastics A10 XS Jr A 8.600 11 9.525 2 9.150 3T 9.050 7T 36.325 7
2018-12-14 Hawaiian Pineapple Classic Oak Lawn Pirouette's Gymnastics 9A XS Age12 9.100 8 8.950 10 9.100 9 9.075 3T 36.225 6
2018-03-02 2018 Flip'r Invitational Morgan Park 6 4 Sr Age 11-3 8.275 13 8.300 8 7.800 13 7.000 13 31.375 13
2018-02-23 Kinetic Classic Morgan Park 6 4 Older 8.000 82 8.350 74 7.325 85 6.050 87 29.725 85
2018-02-09 IGI Chicago Style Gymnastics Meet Morgan Park 50 4 233 Lake Shore Dr L4 D 7.800 16 7.800 11 8.650 9 5.600 16 29.850 15
2018-02-01 The Big Chill Morgan Park 4 4 11 12 yr 6.650 8 7.900 6 8.400 4T 6.500 8 29.450 8
2018-01-19 2018 Bravo Classic Morgan Park 11B 4 Sr 5.700 22 7.550 21 8.200 22 7.100 22 28.550 22
2018-01-12 Legacy Elite Winter Classic Morgan Park 2 4 JrA 8.250 12 6.950 10 7.450 12 7.000 13 29.650 13
Get your scores on
a t-shirt, pin, or hoodie